sensor_id;sensor_type;location;lat;lon;timestamp;P1;durP1;ratioP1;P2;durP2;ratioP2
4603;SDS011;2314;48.272;11.562;2023-10-13T00:02:01;8.57;;;3.27;;
4603;SDS011;2314;48.272;11.562;2023-10-13T00:04:30;7.83;;;2.47;;
4603;SDS011;2314;48.272;11.562;2023-10-13T00:07:00;7.20;;;2.63;;
4603;SDS011;2314;48.272;11.562;2023-10-13T00:09:30;7.83;;;3.20;;
4603;SDS011;2314;48.272;11.562;2023-10-13T00:11:58;7.47;;;2.87;;
4603;SDS011;2314;48.272;11.562;2023-10-13T00:14:25;4.30;;;2.27;;
4603;SDS011;2314;48.272;11.562;2023-10-13T00:17:00;6.63;;;2.27;;
4603;SDS011;2314;48.272;11.562;2023-10-13T00:19:29;9.03;;;3.50;;
4603;SDS011;2314;48.272;11.562;2023-10-13T00:22:03;5.63;;;2.70;;
4603;SDS011;2314;48.272;11.562;2023-10-13T00:24:35;7.53;;;2.87;;
4603;SDS011;2314;48.272;11.562;2023-10-13T00:27:12;7.50;;;2.60;;
4603;SDS011;2314;48.272;11.562;2023-10-13T00:29:56;3.90;;;2.20;;
4603;SDS011;2314;48.272;11.562;2023-10-13T00:32:43;8.27;;;2.83;;
4603;SDS011;2314;48.272;11.562;2023-10-13T00:35:17;8.93;;;3.37;;
4603;SDS011;2314;48.272;11.562;2023-10-13T00:37:50;10.73;;;3.13;;
4603;SDS011;2314;48.272;11.562;2023-10-13T00:40:18;5.17;;;2.90;;
4603;SDS011;2314;48.272;11.562;2023-10-13T00:43:06;7.93;;;2.83;;
4603;SDS011;2314;48.272;11.562;2023-10-13T00:45:52;10.27;;;3.27;;
4603;SDS011;2314;48.272;11.562;2023-10-13T00:48:23;10.67;;;3.27;;
4603;SDS011;2314;48.272;11.562;2023-10-13T00:50:57;6.17;;;2.80;;
4603;SDS011;2314;48.272;11.562;2023-10-13T00:53:28;8.57;;;2.83;;
4603;SDS011;2314;48.272;11.562;2023-10-13T00:55:55;5.93;;;2.83;;
4603;SDS011;2314;48.272;11.562;2023-10-13T00:58:22;8.73;;;4.03;;
4603;SDS011;2314;48.272;11.562;2023-10-13T01:00:50;11.63;;;3.17;;
4603;SDS011;2314;48.272;11.562;2023-10-13T01:03:24;7.67;;;3.10;;
4603;SDS011;2314;48.272;11.562;2023-10-13T01:05:52;7.60;;;2.90;;
4603;SDS011;2314;48.272;11.562;2023-10-13T01:08:31;5.83;;;2.80;;
4603;SDS011;2314;48.272;11.562;2023-10-13T01:11:03;6.03;;;2.73;;
4603;SDS011;2314;48.272;11.562;2023-10-13T01:13:32;8.50;;;3.20;;
4603;SDS011;2314;48.272;11.562;2023-10-13T01:16:01;7.53;;;3.00;;
4603;SDS011;2314;48.272;11.562;2023-10-13T01:18:29;6.63;;;3.37;;
4603;SDS011;2314;48.272;11.562;2023-10-13T01:20:56;8.10;;;3.30;;
4603;SDS011;2314;48.272;11.562;2023-10-13T01:23:26;7.57;;;3.70;;
4603;SDS011;2314;48.272;11.562;2023-10-13T01:26:03;7.27;;;3.37;;
4603;SDS011;2314;48.272;11.562;2023-10-13T01:28:30;8.37;;;2.93;;
4603;SDS011;2314;48.272;11.562;2023-10-13T01:31:09;6.37;;;3.00;;
4603;SDS011;2314;48.272;11.562;2023-10-13T01:33:42;10.83;;;4.10;;
4603;SDS011;2314;48.272;11.562;2023-10-13T01:36:08;6.23;;;3.00;;
4603;SDS011;2314;48.272;11.562;2023-10-13T01:38:38;10.20;;;3.70;;
4603;SDS011;2314;48.272;11.562;2023-10-13T01:41:07;11.30;;;3.90;;
4603;SDS011;2314;48.272;11.562;2023-10-13T01:43:34;7.20;;;3.47;;
4603;SDS011;2314;48.272;11.562;2023-10-13T01:46:01;5.87;;;3.17;;
4603;SDS011;2314;48.272;11.562;2023-10-13T01:48:28;6.50;;;2.80;;
4603;SDS011;2314;48.272;11.562;2023-10-13T01:50:58;6.00;;;3.33;;
4603;SDS011;2314;48.272;11.562;2023-10-13T01:53:27;7.30;;;3.77;;
4603;SDS011;2314;48.272;11.562;2023-10-13T01:55:55;6.40;;;3.27;;
4603;SDS011;2314;48.272;11.562;2023-10-13T01:58:22;8.47;;;4.03;;
4603;SDS011;2314;48.272;11.562;2023-10-13T02:00:51;7.27;;;2.77;;
4603;SDS011;2314;48.272;11.562;2023-10-13T02:03:17;7.33;;;3.30;;
4603;SDS011;2314;48.272;11.562;2023-10-13T02:05:46;15.17;;;3.57;;
4603;SDS011;2314;48.272;11.562;2023-10-13T02:08:14;7.07;;;3.73;;
4603;SDS011;2314;48.272;11.562;2023-10-13T02:10:48;6.40;;;3.03;;
4603;SDS011;2314;48.272;11.562;2023-10-13T02:13:16;8.50;;;3.90;;
4603;SDS011;2314;48.272;11.562;2023-10-13T02:15:45;10.87;;;4.10;;
4603;SDS011;2314;48.272;11.562;2023-10-13T02:18:13;8.37;;;3.37;;
4603;SDS011;2314;48.272;11.562;2023-10-13T02:20:46;10.50;;;3.93;;
4603;SDS011;2314;48.272;11.562;2023-10-13T02:23:19;10.30;;;4.07;;
4603;SDS011;2314;48.272;11.562;2023-10-13T02:25:47;7.37;;;3.40;;
4603;SDS011;2314;48.272;11.562;2023-10-13T02:28:18;9.20;;;2.97;;
4603;SDS011;2314;48.272;11.562;2023-10-13T02:30:53;7.27;;;3.53;;
4603;SDS011;2314;48.272;11.562;2023-10-13T02:33:19;8.27;;;3.43;;
4603;SDS011;2314;48.272;11.562;2023-10-13T02:35:47;7.23;;;3.43;;
4603;SDS011;2314;48.272;11.562;2023-10-13T02:38:19;8.33;;;3.40;;
4603;SDS011;2314;48.272;11.562;2023-10-13T02:40:53;8.80;;;3.67;;
4603;SDS011;2314;48.272;11.562;2023-10-13T02:43:22;9.07;;;3.33;;
4603;SDS011;2314;48.272;11.562;2023-10-13T02:45:52;9.50;;;3.60;;
4603;SDS011;2314;48.272;11.562;2023-10-13T02:48:23;6.93;;;3.80;;
4603;SDS011;2314;48.272;11.562;2023-10-13T02:50:55;8.80;;;4.40;;
4603;SDS011;2314;48.272;11.562;2023-10-13T02:53:26;9.00;;;3.63;;
4603;SDS011;2314;48.272;11.562;2023-10-13T02:55:55;7.57;;;3.87;;
4603;SDS011;2314;48.272;11.562;2023-10-13T02:58:32;8.80;;;3.10;;
4603;SDS011;2314;48.272;11.562;2023-10-13T03:01:05;9.17;;;5.00;;
4603;SDS011;2314;48.272;11.562;2023-10-13T03:03:42;9.80;;;3.93;;
4603;SDS011;2314;48.272;11.562;2023-10-13T03:06:15;9.13;;;3.07;;
4603;SDS011;2314;48.272;11.562;2023-10-13T03:08:43;6.67;;;3.50;;
4603;SDS011;2314;48.272;11.562;2023-10-13T03:11:10;10.10;;;4.33;;
4603;SDS011;2314;48.272;11.562;2023-10-13T03:13:38;11.63;;;3.50;;
4603;SDS011;2314;48.272;11.562;2023-10-13T03:16:13;9.73;;;3.53;;
4603;SDS011;2314;48.272;11.562;2023-10-13T03:18:41;6.10;;;3.33;;
4603;SDS011;2314;48.272;11.562;2023-10-13T03:21:18;10.70;;;4.27;;
4603;SDS011;2314;48.272;11.562;2023-10-13T03:23:58;7.50;;;3.20;;
4603;SDS011;2314;48.272;11.562;2023-10-13T03:26:30;8.03;;;3.37;;
4603;SDS011;2314;48.272;11.562;2023-10-13T03:29:03;7.13;;;3.60;;
4603;SDS011;2314;48.272;11.562;2023-10-13T03:31:33;11.13;;;3.77;;
4603;SDS011;2314;48.272;11.562;2023-10-13T03:34:03;9.43;;;4.00;;
4603;SDS011;2314;48.272;11.562;2023-10-13T03:36:35;17.07;;;5.13;;
4603;SDS011;2314;48.272;11.562;2023-10-13T03:39:16;5.53;;;2.70;;
4603;SDS011;2314;48.272;11.562;2023-10-13T03:41:43;7.57;;;3.80;;
4603;SDS011;2314;48.272;11.562;2023-10-13T03:44:19;8.60;;;3.60;;
4603;SDS011;2314;48.272;11.562;2023-10-13T03:46:47;6.20;;;3.10;;
4603;SDS011;2314;48.272;11.562;2023-10-13T03:49:15;8.40;;;3.60;;
4603;SDS011;2314;48.272;11.562;2023-10-13T03:51:46;12.87;;;4.00;;
4603;SDS011;2314;48.272;11.562;2023-10-13T03:54:14;7.93;;;3.80;;
4603;SDS011;2314;48.272;11.562;2023-10-13T03:56:42;7.83;;;4.20;;
4603;SDS011;2314;48.272;11.562;2023-10-13T03:59:10;7.00;;;3.60;;
4603;SDS011;2314;48.272;11.562;2023-10-13T04:01:45;7.73;;;3.37;;
4603;SDS011;2314;48.272;11.562;2023-10-13T04:04:24;7.97;;;3.30;;
4603;SDS011;2314;48.272;11.562;2023-10-13T04:07:07;10.57;;;4.00;;
4603;SDS011;2314;48.272;11.562;2023-10-13T04:10:00;13.40;;;3.40;;
4603;SDS011;2314;48.272;11.562;2023-10-13T04:12:47;8.37;;;3.17;;
4603;SDS011;2314;48.272;11.562;2023-10-13T04:15:31;9.53;;;3.20;;
4603;SDS011;2314;48.272;11.562;2023-10-13T04:18:28;9.53;;;3.37;;
4603;SDS011;2314;48.272;11.562;2023-10-13T04:21:15;5.80;;;3.17;;
4603;SDS011;2314;48.272;11.562;2023-10-13T04:24:05;7.27;;;3.37;;
4603;SDS011;2314;48.272;11.562;2023-10-13T04:26:48;5.87;;;2.80;;
4603;SDS011;2314;48.272;11.562;2023-10-13T04:29:40;7.00;;;2.90;;
4603;SDS011;2314;48.272;11.562;2023-10-13T04:32:20;9.97;;;3.93;;
4603;SDS011;2314;48.272;11.562;2023-10-13T04:34:54;6.33;;;3.10;;
4603;SDS011;2314;48.272;11.562;2023-10-13T04:37:33;7.77;;;3.27;;
4603;SDS011;2314;48.272;11.562;2023-10-13T04:40:13;6.97;;;2.83;;
4603;SDS011;2314;48.272;11.562;2023-10-13T04:42:42;7.63;;;3.67;;
4603;SDS011;2314;48.272;11.562;2023-10-13T04:45:15;5.90;;;3.10;;
4603;SDS011;2314;48.272;11.562;2023-10-13T04:47:57;6.80;;;2.97;;
4603;SDS011;2314;48.272;11.562;2023-10-13T04:50:40;6.40;;;3.07;;
4603;SDS011;2314;48.272;11.562;2023-10-13T04:53:11;6.53;;;2.60;;
4603;SDS011;2314;48.272;11.562;2023-10-13T04:55:53;9.67;;;3.80;;
4603;SDS011;2314;48.272;11.562;2023-10-13T04:58:53;9.40;;;3.53;;
4603;SDS011;2314;48.272;11.562;2023-10-13T05:01:38;7.20;;;2.90;;
4603;SDS011;2314;48.272;11.562;2023-10-13T05:04:25;9.77;;;3.07;;
4603;SDS011;2314;48.272;11.562;2023-10-13T05:07:05;7.90;;;3.30;;
4603;SDS011;2314;48.272;11.562;2023-10-13T05:09:50;7.50;;;2.70;;
4603;SDS011;2314;48.272;11.562;2023-10-13T05:12:35;8.50;;;3.80;;
4603;SDS011;2314;48.272;11.562;2023-10-13T05:15:19;6.43;;;3.10;;
4603;SDS011;2314;48.272;11.562;2023-10-13T05:18:03;7.17;;;3.20;;
4603;SDS011;2314;48.272;11.562;2023-10-13T05:20:47;8.57;;;3.10;;
4603;SDS011;2314;48.272;11.562;2023-10-13T05:23:33;13.97;;;3.60;;
4603;SDS011;2314;48.272;11.562;2023-10-13T05:26:17;6.27;;;3.40;;
4603;SDS011;2314;48.272;11.562;2023-10-13T05:29:02;9.40;;;4.30;;
4603;SDS011;2314;48.272;11.562;2023-10-13T05:31:47;8.27;;;3.37;;
4603;SDS011;2314;48.272;11.562;2023-10-13T05:34:32;8.33;;;3.70;;
4603;SDS011;2314;48.272;11.562;2023-10-13T05:37:16;9.30;;;3.70;;
4603;SDS011;2314;48.272;11.562;2023-10-13T05:40:02;11.33;;;4.47;;
4603;SDS011;2314;48.272;11.562;2023-10-13T05:42:56;11.57;;;4.27;;
4603;SDS011;2314;48.272;11.562;2023-10-13T05:45:41;11.07;;;4.73;;
4603;SDS011;2314;48.272;11.562;2023-10-13T05:48:22;7.43;;;4.20;;
4603;SDS011;2314;48.272;11.562;2023-10-13T05:51:06;12.43;;;4.23;;
4603;SDS011;2314;48.272;11.562;2023-10-13T05:53:51;7.90;;;4.03;;
4603;SDS011;2314;48.272;11.562;2023-10-13T05:56:37;8.83;;;3.90;;
4603;SDS011;2314;48.272;11.562;2023-10-13T05:59:22;7.13;;;3.20;;
4603;SDS011;2314;48.272;11.562;2023-10-13T06:02:06;5.60;;;3.60;;
4603;SDS011;2314;48.272;11.562;2023-10-13T06:04:51;13.53;;;3.97;;
4603;SDS011;2314;48.272;11.562;2023-10-13T06:07:36;9.33;;;3.90;;
4603;SDS011;2314;48.272;11.562;2023-10-13T06:10:20;10.60;;;3.63;;
4603;SDS011;2314;48.272;11.562;2023-10-13T06:13:07;10.30;;;3.47;;
4603;SDS011;2314;48.272;11.562;2023-10-13T06:15:51;10.07;;;3.37;;
4603;SDS011;2314;48.272;11.562;2023-10-13T06:18:36;9.37;;;2.87;;
4603;SDS011;2314;48.272;11.562;2023-10-13T06:21:21;9.53;;;3.20;;
4603;SDS011;2314;48.272;11.562;2023-10-13T06:24:06;8.50;;;2.80;;
4603;SDS011;2314;48.272;11.562;2023-10-13T06:26:51;7.90;;;2.47;;
4603;SDS011;2314;48.272;11.562;2023-10-13T06:29:36;9.43;;;3.30;;
4603;SDS011;2314;48.272;11.562;2023-10-13T06:32:03;9.50;;;3.60;;
4603;SDS011;2314;48.272;11.562;2023-10-13T06:34:35;15.17;;;3.03;;
4603;SDS011;2314;48.272;11.562;2023-10-13T06:37:07;7.13;;;3.23;;
4603;SDS011;2314;48.272;11.562;2023-10-13T06:39:47;6.30;;;2.30;;
4603;SDS011;2314;48.272;11.562;2023-10-13T06:42:15;11.63;;;3.43;;
4603;SDS011;2314;48.272;11.562;2023-10-13T06:44:45;11.50;;;3.23;;
4603;SDS011;2314;48.272;11.562;2023-10-13T06:47:12;9.67;;;3.10;;
4603;SDS011;2314;48.272;11.562;2023-10-13T06:49:40;12.23;;;3.70;;
4603;SDS011;2314;48.272;11.562;2023-10-13T06:52:08;9.33;;;2.50;;
4603;SDS011;2314;48.272;11.562;2023-10-13T06:54:36;11.37;;;3.80;;
4603;SDS011;2314;48.272;11.562;2023-10-13T06:57:06;13.70;;;2.93;;
4603;SDS011;2314;48.272;11.562;2023-10-13T06:59:35;11.20;;;3.30;;
4603;SDS011;2314;48.272;11.562;2023-10-13T07:02:07;10.20;;;3.03;;
4603;SDS011;2314;48.272;11.562;2023-10-13T07:04:35;8.87;;;3.47;;
4603;SDS011;2314;48.272;11.562;2023-10-13T07:07:04;6.47;;;2.93;;
4603;SDS011;2314;48.272;11.562;2023-10-13T07:09:35;10.47;;;3.80;;
4603;SDS011;2314;48.272;11.562;2023-10-13T07:12:05;9.60;;;3.93;;
4603;SDS011;2314;48.272;11.562;2023-10-13T07:14:44;11.97;;;5.07;;
4603;SDS011;2314;48.272;11.562;2023-10-13T07:17:19;12.90;;;4.93;;
4603;SDS011;2314;48.272;11.562;2023-10-13T07:19:50;16.73;;;6.77;;
4603;SDS011;2314;48.272;11.562;2023-10-13T07:22:21;13.90;;;5.93;;
4603;SDS011;2314;48.272;11.562;2023-10-13T07:24:50;12.30;;;5.97;;
4603;SDS011;2314;48.272;11.562;2023-10-13T07:27:18;15.97;;;5.00;;
4603;SDS011;2314;48.272;11.562;2023-10-13T07:29:51;14.50;;;5.30;;
4603;SDS011;2314;48.272;11.562;2023-10-13T07:32:24;7.50;;;2.90;;
4603;SDS011;2314;48.272;11.562;2023-10-13T07:34:54;10.73;;;4.70;;
4603;SDS011;2314;48.272;11.562;2023-10-13T07:37:22;15.03;;;5.27;;
4603;SDS011;2314;48.272;11.562;2023-10-13T07:39:54;17.17;;;5.40;;
4603;SDS011;2314;48.272;11.562;2023-10-13T07:42:23;16.70;;;5.00;;
4603;SDS011;2314;48.272;11.562;2023-10-13T07:44:57;12.00;;;4.83;;
4603;SDS011;2314;48.272;11.562;2023-10-13T07:47:26;19.73;;;7.47;;
4603;SDS011;2314;48.272;11.562;2023-10-13T07:49:53;19.40;;;9.20;;
4603;SDS011;2314;48.272;11.562;2023-10-13T07:52:22;11.30;;;5.70;;
4603;SDS011;2314;48.272;11.562;2023-10-13T07:55:01;11.73;;;4.90;;
4603;SDS011;2314;48.272;11.562;2023-10-13T07:57:36;11.60;;;3.60;;
4603;SDS011;2314;48.272;11.562;2023-10-13T08:00:18;6.90;;;3.27;;
4603;SDS011;2314;48.272;11.562;2023-10-13T08:02:58;12.13;;;3.70;;
4603;SDS011;2314;48.272;11.562;2023-10-13T08:05:42;11.03;;;3.07;;
4603;SDS011;2314;48.272;11.562;2023-10-13T08:08:23;8.90;;;3.70;;
4603;SDS011;2314;48.272;11.562;2023-10-13T08:11:00;5.80;;;2.50;;
4603;SDS011;2314;48.272;11.562;2023-10-13T08:13:33;7.80;;;2.83;;
4603;SDS011;2314;48.272;11.562;2023-10-13T08:16:02;6.23;;;2.50;;
4603;SDS011;2314;48.272;11.562;2023-10-13T08:18:34;10.40;;;2.70;;
4603;SDS011;2314;48.272;11.562;2023-10-13T08:21:06;15.13;;;2.73;;
4603;SDS011;2314;48.272;11.562;2023-10-13T08:23:41;7.00;;;2.60;;
4603;SDS011;2314;48.272;11.562;2023-10-13T08:26:25;6.97;;;3.00;;
4603;SDS011;2314;48.272;11.562;2023-10-13T08:29:22;8.23;;;2.50;;
4603;SDS011;2314;48.272;11.562;2023-10-13T08:32:06;7.53;;;2.23;;
4603;SDS011;2314;48.272;11.562;2023-10-13T08:35:02;8.63;;;3.00;;
4603;SDS011;2314;48.272;11.562;2023-10-13T08:37:44;15.20;;;2.90;;
4603;SDS011;2314;48.272;11.562;2023-10-13T08:40:26;9.67;;;3.27;;
4603;SDS011;2314;48.272;11.562;2023-10-13T08:43:12;9.73;;;2.43;;
4603;SDS011;2314;48.272;11.562;2023-10-13T08:45:39;10.90;;;2.50;;
4603;SDS011;2314;48.272;11.562;2023-10-13T08:48:23;8.17;;;3.07;;
4603;SDS011;2314;48.272;11.562;2023-10-13T08:50:58;6.60;;;2.90;;
4603;SDS011;2314;48.272;11.562;2023-10-13T08:53:37;11.83;;;2.70;;
4603;SDS011;2314;48.272;11.562;2023-10-13T08:56:16;9.03;;;2.73;;
4603;SDS011;2314;48.272;11.562;2023-10-13T08:58:58;7.47;;;2.40;;
4603;SDS011;2314;48.272;11.562;2023-10-13T09:01:52;5.93;;;2.30;;
4603;SDS011;2314;48.272;11.562;2023-10-13T09:04:41;11.43;;;2.33;;
4603;SDS011;2314;48.272;11.562;2023-10-13T09:07:11;6.80;;;2.30;;
4603;SDS011;2314;48.272;11.562;2023-10-13T09:09:47;12.43;;;3.77;;
4603;SDS011;2314;48.272;11.562;2023-10-13T09:12:29;7.33;;;2.50;;
4603;SDS011;2314;48.272;11.562;2023-10-13T09:15:28;7.50;;;2.17;;
4603;SDS011;2314;48.272;11.562;2023-10-13T09:18:10;8.03;;;2.63;;
4603;SDS011;2314;48.272;11.562;2023-10-13T09:20:40;14.20;;;3.13;;
4603;SDS011;2314;48.272;11.562;2023-10-13T09:23:10;7.80;;;2.80;;
4603;SDS011;2314;48.272;11.562;2023-10-13T09:25:48;6.80;;;2.83;;
4603;SDS011;2314;48.272;11.562;2023-10-13T09:28:19;9.03;;;2.67;;
4603;SDS011;2314;48.272;11.562;2023-10-13T09:30:50;6.70;;;2.33;;
4603;SDS011;2314;48.272;11.562;2023-10-13T09:33:21;10.70;;;2.93;;
4603;SDS011;2314;48.272;11.562;2023-10-13T09:35:57;10.90;;;2.87;;
4603;SDS011;2314;48.272;11.562;2023-10-13T09:38:27;10.63;;;3.07;;
4603;SDS011;2314;48.272;11.562;2023-10-13T09:40:55;4.67;;;2.07;;
4603;SDS011;2314;48.272;11.562;2023-10-13T09:43:23;8.70;;;3.83;;
4603;SDS011;2314;48.272;11.562;2023-10-13T09:45:50;9.17;;;3.20;;
4603;SDS011;2314;48.272;11.562;2023-10-13T09:48:29;9.00;;;3.20;;
4603;SDS011;2314;48.272;11.562;2023-10-13T09:50:59;7.47;;;2.53;;
4603;SDS011;2314;48.272;11.562;2023-10-13T09:53:31;7.53;;;2.27;;
4603;SDS011;2314;48.272;11.562;2023-10-13T09:56:02;6.27;;;2.20;;
4603;SDS011;2314;48.272;11.562;2023-10-13T09:58:46;7.37;;;2.83;;
4603;SDS011;2314;48.272;11.562;2023-10-13T10:01:22;6.40;;;1.80;;
4603;SDS011;2314;48.272;11.562;2023-10-13T10:04:06;9.53;;;2.90;;
4603;SDS011;2314;48.272;11.562;2023-10-13T10:06:34;5.00;;;1.83;;
4603;SDS011;2314;48.272;11.562;2023-10-13T10:09:12;5.37;;;2.07;;
4603;SDS011;2314;48.272;11.562;2023-10-13T10:17:53;7.23;;;2.60;;
4603;SDS011;2314;48.272;11.562;2023-10-13T10:20:27;8.97;;;2.30;;
4603;SDS011;2314;48.272;11.562;2023-10-13T10:23:05;8.30;;;1.80;;
4603;SDS011;2314;48.272;11.562;2023-10-13T10:25:36;4.73;;;1.90;;
4603;SDS011;2314;48.272;11.562;2023-10-13T10:28:09;8.00;;;2.80;;
4603;SDS011;2314;48.272;11.562;2023-10-13T10:30:40;12.50;;;2.13;;
4603;SDS011;2314;48.272;11.562;2023-10-13T10:33:09;7.53;;;2.40;;
4603;SDS011;2314;48.272;11.562;2023-10-13T10:35:39;6.13;;;2.17;;
4603;SDS011;2314;48.272;11.562;2023-10-13T10:38:08;8.80;;;2.87;;
4603;SDS011;2314;48.272;11.562;2023-10-13T10:40:50;6.17;;;1.93;;
4603;SDS011;2314;48.272;11.562;2023-10-13T10:43:22;6.07;;;2.40;;
4603;SDS011;2314;48.272;11.562;2023-10-13T10:45:54;11.20;;;2.50;;
4603;SDS011;2314;48.272;11.562;2023-10-13T10:48:26;6.47;;;2.17;;
4603;SDS011;2314;48.272;11.562;2023-10-13T10:50:59;12.77;;;2.37;;
4603;SDS011;2314;48.272;11.562;2023-10-13T10:53:33;11.40;;;2.80;;
4603;SDS011;2314;48.272;11.562;2023-10-13T10:56:10;6.57;;;2.17;;
4603;SDS011;2314;48.272;11.562;2023-10-13T10:59:02;11.30;;;2.40;;
4603;SDS011;2314;48.272;11.562;2023-10-13T11:01:31;4.53;;;1.73;;
4603;SDS011;2314;48.272;11.562;2023-10-13T11:04:12;8.00;;;2.53;;
4603;SDS011;2314;48.272;11.562;2023-10-13T11:06:46;12.23;;;2.43;;
4603;SDS011;2314;48.272;11.562;2023-10-13T11:09:23;9.63;;;2.67;;
4603;SDS011;2314;48.272;11.562;2023-10-13T11:12:13;14.90;;;2.53;;
4603;SDS011;2314;48.272;11.562;2023-10-13T11:14:41;8.17;;;2.47;;
4603;SDS011;2314;48.272;11.562;2023-10-13T11:17:18;14.17;;;2.77;;
4603;SDS011;2314;48.272;11.562;2023-10-13T11:19:50;6.00;;;2.13;;
4603;SDS011;2314;48.272;11.562;2023-10-13T11:22:18;5.27;;;1.83;;
4603;SDS011;2314;48.272;11.562;2023-10-13T11:24:58;8.87;;;2.20;;
4603;SDS011;2314;48.272;11.562;2023-10-13T11:27:36;5.67;;;2.00;;
4603;SDS011;2314;48.272;11.562;2023-10-13T11:30:21;7.90;;;2.97;;
4603;SDS011;2314;48.272;11.562;2023-10-13T11:32:58;5.00;;;1.83;;
4603;SDS011;2314;48.272;11.562;2023-10-13T11:35:26;5.20;;;2.07;;
4603;SDS011;2314;48.272;11.562;2023-10-13T11:38:13;6.00;;;2.33;;
4603;SDS011;2314;48.272;11.562;2023-10-13T11:40:50;5.07;;;2.47;;
4603;SDS011;2314;48.272;11.562;2023-10-13T11:43:43;11.80;;;2.10;;
4603;SDS011;2314;48.272;11.562;2023-10-13T11:46:30;6.13;;;2.13;;
4603;SDS011;2314;48.272;11.562;2023-10-13T11:49:15;10.00;;;1.90;;
4603;SDS011;2314;48.272;11.562;2023-10-13T11:51:56;8.00;;;2.70;;
4603;SDS011;2314;48.272;11.562;2023-10-13T11:54:34;14.97;;;2.70;;
4603;SDS011;2314;48.272;11.562;2023-10-13T11:57:07;6.60;;;1.73;;
4603;SDS011;2314;48.272;11.562;2023-10-13T11:59:35;6.10;;;2.10;;
4603;SDS011;2314;48.272;11.562;2023-10-13T12:02:10;11.70;;;2.97;;
4603;SDS011;2314;48.272;11.562;2023-10-13T12:05:10;8.10;;;2.50;;
4603;SDS011;2314;48.272;11.562;2023-10-13T12:07:42;8.53;;;2.20;;
4603;SDS011;2314;48.272;11.562;2023-10-13T12:10:13;5.07;;;2.10;;
4603;SDS011;2314;48.272;11.562;2023-10-13T12:12:59;9.90;;;2.53;;
4603;SDS011;2314;48.272;11.562;2023-10-13T12:15:32;8.63;;;2.33;;
4603;SDS011;2314;48.272;11.562;2023-10-13T12:18:16;6.50;;;2.33;;
4603;SDS011;2314;48.272;11.562;2023-10-13T12:20:44;9.30;;;2.27;;
4603;SDS011;2314;48.272;11.562;2023-10-13T12:23:12;5.13;;;2.03;;
4603;SDS011;2314;48.272;11.562;2023-10-13T12:25:45;12.13;;;3.03;;
4603;SDS011;2314;48.272;11.562;2023-10-13T12:28:23;11.20;;;2.30;;
4603;SDS011;2314;48.272;11.562;2023-10-13T12:30:53;5.93;;;2.33;;
4603;SDS011;2314;48.272;11.562;2023-10-13T12:33:29;6.60;;;2.53;;
4603;SDS011;2314;48.272;11.562;2023-10-13T12:36:02;8.80;;;2.20;;
4603;SDS011;2314;48.272;11.562;2023-10-13T12:38:32;9.97;;;2.30;;
4603;SDS011;2314;48.272;11.562;2023-10-13T12:41:16;10.20;;;2.60;;
4603;SDS011;2314;48.272;11.562;2023-10-13T12:44:01;9.50;;;2.27;;
4603;SDS011;2314;48.272;11.562;2023-10-13T12:46:47;6.03;;;2.30;;
4603;SDS011;2314;48.272;11.562;2023-10-13T12:49:32;6.73;;;2.27;;
4603;SDS011;2314;48.272;11.562;2023-10-13T12:52:17;8.30;;;2.53;;
4603;SDS011;2314;48.272;11.562;2023-10-13T12:54:44;12.50;;;2.03;;
4603;SDS011;2314;48.272;11.562;2023-10-13T12:57:23;9.93;;;2.30;;
4603;SDS011;2314;48.272;11.562;2023-10-13T12:59:51;13.53;;;2.60;;
4603;SDS011;2314;48.272;11.562;2023-10-13T13:02:21;6.50;;;2.10;;
4603;SDS011;2314;48.272;11.562;2023-10-13T13:04:50;10.30;;;3.10;;
4603;SDS011;2314;48.272;11.562;2023-10-13T13:07:26;4.27;;;2.00;;
4603;SDS011;2314;48.272;11.562;2023-10-13T13:09:54;12.53;;;2.53;;
4603;SDS011;2314;48.272;11.562;2023-10-13T13:12:25;9.57;;;2.97;;
4603;SDS011;2314;48.272;11.562;2023-10-13T13:14:53;8.83;;;2.80;;
4603;SDS011;2314;48.272;11.562;2023-10-13T13:17:22;4.50;;;1.93;;
4603;SDS011;2314;48.272;11.562;2023-10-13T13:19:49;6.20;;;2.27;;
4603;SDS011;2314;48.272;11.562;2023-10-13T13:22:16;10.67;;;2.67;;
4603;SDS011;2314;48.272;11.562;2023-10-13T13:24:43;6.07;;;2.57;;
4603;SDS011;2314;48.272;11.562;2023-10-13T13:27:13;4.40;;;2.30;;
4603;SDS011;2314;48.272;11.562;2023-10-13T13:29:42;11.37;;;2.60;;
4603;SDS011;2314;48.272;11.562;2023-10-13T13:32:09;6.63;;;1.90;;
4603;SDS011;2314;48.272;11.562;2023-10-13T13:34:50;6.30;;;2.00;;
4603;SDS011;2314;48.272;11.562;2023-10-13T13:37:29;10.27;;;2.60;;
4603;SDS011;2314;48.272;11.562;2023-10-13T13:39:56;8.10;;;2.33;;
4603;SDS011;2314;48.272;11.562;2023-10-13T13:42:38;4.37;;;1.87;;
4603;SDS011;2314;48.272;11.562;2023-10-13T13:45:08;8.80;;;2.30;;
4603;SDS011;2314;48.272;11.562;2023-10-13T13:47:46;4.57;;;2.03;;
4603;SDS011;2314;48.272;11.562;2023-10-13T13:50:20;5.60;;;2.10;;
4603;SDS011;2314;48.272;11.562;2023-10-13T13:52:52;11.70;;;2.30;;
4603;SDS011;2314;48.272;11.562;2023-10-13T13:55:21;9.00;;;2.50;;
4603;SDS011;2314;48.272;11.562;2023-10-13T13:57:48;13.73;;;2.30;;
4603;SDS011;2314;48.272;11.562;2023-10-13T14:00:16;8.93;;;2.90;;
4603;SDS011;2314;48.272;11.562;2023-10-13T14:02:51;5.40;;;2.07;;
4603;SDS011;2314;48.272;11.562;2023-10-13T14:05:21;7.40;;;2.20;;
4603;SDS011;2314;48.272;11.562;2023-10-13T14:07:49;6.47;;;2.03;;
4603;SDS011;2314;48.272;11.562;2023-10-13T14:10:16;12.70;;;2.97;;
4603;SDS011;2314;48.272;11.562;2023-10-13T14:12:59;7.27;;;2.23;;
4603;SDS011;2314;48.272;11.562;2023-10-13T14:15:32;6.60;;;2.30;;
4603;SDS011;2314;48.272;11.562;2023-10-13T14:18:09;9.00;;;2.70;;
4603;SDS011;2314;48.272;11.562;2023-10-13T14:20:41;11.60;;;2.83;;
4603;SDS011;2314;48.272;11.562;2023-10-13T14:23:08;7.23;;;3.10;;
4603;SDS011;2314;48.272;11.562;2023-10-13T14:25:37;6.10;;;2.70;;
4603;SDS011;2314;48.272;11.562;2023-10-13T14:28:09;8.47;;;4.30;;
4603;SDS011;2314;48.272;11.562;2023-10-13T14:30:42;9.17;;;3.20;;
4603;SDS011;2314;48.272;11.562;2023-10-13T14:33:10;8.80;;;2.73;;
4603;SDS011;2314;48.272;11.562;2023-10-13T14:35:38;9.70;;;2.43;;
4603;SDS011;2314;48.272;11.562;2023-10-13T14:38:06;10.53;;;2.43;;
4603;SDS011;2314;48.272;11.562;2023-10-13T14:40:33;10.30;;;2.33;;
4603;SDS011;2314;48.272;11.562;2023-10-13T14:43:00;7.10;;;2.50;;
4603;SDS011;2314;48.272;11.562;2023-10-13T14:45:29;9.70;;;2.90;;
4603;SDS011;2314;48.272;11.562;2023-10-13T14:47:59;8.00;;;2.77;;
4603;SDS011;2314;48.272;11.562;2023-10-13T14:50:26;6.73;;;2.23;;
4603;SDS011;2314;48.272;11.562;2023-10-13T14:52:53;7.63;;;2.20;;
4603;SDS011;2314;48.272;11.562;2023-10-13T14:55:23;6.57;;;2.47;;
4603;SDS011;2314;48.272;11.562;2023-10-13T14:58:03;4.17;;;1.90;;
4603;SDS011;2314;48.272;11.562;2023-10-13T15:00:32;7.77;;;2.50;;
4603;SDS011;2314;48.272;11.562;2023-10-13T15:03:00;5.50;;;2.03;;
4603;SDS011;2314;48.272;11.562;2023-10-13T15:05:30;8.73;;;2.87;;
4603;SDS011;2314;48.272;11.562;2023-10-13T15:08:00;11.87;;;2.70;;
4603;SDS011;2314;48.272;11.562;2023-10-13T15:10:32;8.53;;;2.50;;
4603;SDS011;2314;48.272;11.562;2023-10-13T15:13:02;6.20;;;2.50;;
4603;SDS011;2314;48.272;11.562;2023-10-13T15:15:30;8.53;;;2.30;;
4603;SDS011;2314;48.272;11.562;2023-10-13T15:17:57;6.43;;;2.40;;
4603;SDS011;2314;48.272;11.562;2023-10-13T15:20:26;8.33;;;2.90;;
4603;SDS011;2314;48.272;11.562;2023-10-13T15:22:53;7.43;;;2.40;;
4603;SDS011;2314;48.272;11.562;2023-10-13T15:25:24;6.07;;;2.63;;
4603;SDS011;2314;48.272;11.562;2023-10-13T15:28:00;7.50;;;2.63;;
4603;SDS011;2314;48.272;11.562;2023-10-13T15:30:28;8.60;;;2.50;;
4603;SDS011;2314;48.272;11.562;2023-10-13T15:33:09;8.87;;;2.23;;
4603;SDS011;2314;48.272;11.562;2023-10-13T15:35:38;9.20;;;2.63;;
4603;SDS011;2314;48.272;11.562;2023-10-13T15:38:08;7.60;;;2.80;;
4603;SDS011;2314;48.272;11.562;2023-10-13T15:40:40;9.07;;;2.40;;
4603;SDS011;2314;48.272;11.562;2023-10-13T15:43:10;13.23;;;3.87;;
4603;SDS011;2314;48.272;11.562;2023-10-13T15:45:37;15.20;;;4.27;;
4603;SDS011;2314;48.272;11.562;2023-10-13T15:48:08;9.33;;;2.97;;
4603;SDS011;2314;48.272;11.562;2023-10-13T15:50:36;22.40;;;3.43;;